sensor_id;sensor_type;location;lat;lon;timestamp;P1;durP1;ratioP1;P2;durP2;ratioP2
59300;SDS011;45073;52.740;6.784;2024-03-23T00:55:05;19.42;;;4.40;;
59300;SDS011;45073;52.740;6.784;2024-03-23T00:57:32;13.02;;;3.88;;
59300;SDS011;45073;52.740;6.784;2024-03-23T00:59:58;12.60;;;3.42;;
59300;SDS011;45073;52.740;6.784;2024-03-23T01:02:24;10.98;;;2.92;;
59300;SDS011;45073;52.740;6.784;2024-03-23T01:04:49;15.15;;;2.83;;
59300;SDS011;45073;52.740;6.784;2024-03-23T01:07:15;12.75;;;2.92;;
59300;SDS011;45073;52.740;6.784;2024-03-23T01:09:41;17.95;;;3.13;;
59300;SDS011;45073;52.740;6.784;2024-03-23T01:12:06;17.63;;;3.28;;
59300;SDS011;45073;52.740;6.784;2024-03-23T01:14:32;16.13;;;4.15;;
59300;SDS011;45073;52.740;6.784;2024-03-23T01:16:58;16.02;;;3.88;;
59300;SDS011;45073;52.740;6.784;2024-03-23T01:19:24;13.77;;;3.75;;
59300;SDS011;45073;52.740;6.784;2024-03-23T01:21:51;13.93;;;3.78;;
59300;SDS011;45073;52.740;6.784;2024-03-23T01:24:17;14.10;;;3.72;;
59300;SDS011;45073;52.740;6.784;2024-03-23T01:26:43;17.50;;;3.63;;
59300;SDS011;45073;52.740;6.784;2024-03-23T01:29:09;12.38;;;3.17;;
59300;SDS011;45073;52.740;6.784;2024-03-23T01:31:35;27.27;;;4.43;;
59300;SDS011;45073;52.740;6.784;2024-03-23T01:34:01;22.42;;;4.28;;
59300;SDS011;45073;52.740;6.784;2024-03-23T01:36:27;14.73;;;3.85;;
59300;SDS011;45073;52.740;6.784;2024-03-23T01:38:53;13.35;;;3.42;;
59300;SDS011;45073;52.740;6.784;2024-03-23T01:41:18;14.60;;;3.75;;
59300;SDS011;45073;52.740;6.784;2024-03-23T01:43:45;12.57;;;2.55;;
59300;SDS011;45073;52.740;6.784;2024-03-23T01:46:11;11.57;;;2.90;;
59300;SDS011;45073;52.740;6.784;2024-03-23T01:48:37;16.88;;;3.08;;
59300;SDS011;45073;52.740;6.784;2024-03-23T01:51:03;11.43;;;2.45;;
59300;SDS011;45073;52.740;6.784;2024-03-23T01:53:29;16.38;;;2.83;;
59300;SDS011;45073;52.740;6.784;2024-03-23T01:55:56;21.17;;;4.10;;
59300;SDS011;45073;52.740;6.784;2024-03-23T01:58:22;11.27;;;3.05;;
59300;SDS011;45073;52.740;6.784;2024-03-23T02:00:48;11.95;;;3.30;;
59300;SDS011;45073;52.740;6.784;2024-03-23T02:05:49;15.32;;;3.85;;
59300;SDS011;45073;52.740;6.784;2024-03-23T02:08:16;18.17;;;3.35;;
59300;SDS011;45073;52.740;6.784;2024-03-23T02:10:43;17.67;;;3.70;;
59300;SDS011;45073;52.740;6.784;2024-03-23T02:13:09;13.48;;;3.30;;
59300;SDS011;45073;52.740;6.784;2024-03-23T02:15:34;13.82;;;4.03;;
59300;SDS011;45073;52.740;6.784;2024-03-23T02:18:00;12.95;;;3.58;;
59300;SDS011;45073;52.740;6.784;2024-03-23T02:20:26;12.85;;;2.85;;
59300;SDS011;45073;52.740;6.784;2024-03-23T02:22:52;18.25;;;3.45;;
59300;SDS011;45073;52.740;6.784;2024-03-23T02:25:18;16.60;;;3.55;;
59300;SDS011;45073;52.740;6.784;2024-03-23T02:27:44;10.68;;;3.95;;
59300;SDS011;45073;52.740;6.784;2024-03-23T02:30:10;12.98;;;3.05;;
59300;SDS011;45073;52.740;6.784;2024-03-23T02:32:36;12.30;;;3.85;;
59300;SDS011;45073;52.740;6.784;2024-03-23T02:35:01;13.82;;;3.55;;
59300;SDS011;45073;52.740;6.784;2024-03-23T02:37:27;19.13;;;3.40;;
59300;SDS011;45073;52.740;6.784;2024-03-23T02:39:53;7.25;;;1.95;;
59300;SDS011;45073;52.740;6.784;2024-03-23T02:42:19;12.18;;;2.90;;
59300;SDS011;45073;52.740;6.784;2024-03-23T02:44:45;16.00;;;3.67;;
59300;SDS011;45073;52.740;6.784;2024-03-23T02:47:12;15.45;;;4.22;;
59300;SDS011;45073;52.740;6.784;2024-03-23T02:49:38;15.23;;;3.80;;
59300;SDS011;45073;52.740;6.784;2024-03-23T02:52:04;14.40;;;2.85;;
59300;SDS011;45073;52.740;6.784;2024-03-23T02:54:30;11.80;;;2.95;;
59300;SDS011;45073;52.740;6.784;2024-03-23T02:56:55;10.57;;;4.00;;
59300;SDS011;45073;52.740;6.784;2024-03-23T02:59:21;15.50;;;4.40;;
59300;SDS011;45073;52.740;6.784;2024-03-23T03:01:47;7.70;;;2.67;;
59300;SDS011;45073;52.740;6.784;2024-03-23T03:04:13;14.13;;;3.58;;
59300;SDS011;45073;52.740;6.784;2024-03-23T03:06:39;9.05;;;2.45;;
59300;SDS011;45073;52.740;6.784;2024-03-23T03:09:06;14.27;;;3.30;;
59300;SDS011;45073;52.740;6.784;2024-03-23T03:11:32;14.57;;;2.92;;
59300;SDS011;45073;52.740;6.784;2024-03-23T03:13:57;10.88;;;3.10;;
59300;SDS011;45073;52.740;6.784;2024-03-23T03:16:25;15.18;;;3.30;;
59300;SDS011;45073;52.740;6.784;2024-03-23T03:18:51;12.05;;;3.35;;
59300;SDS011;45073;52.740;6.784;2024-03-23T03:21:17;7.45;;;2.20;;
59300;SDS011;45073;52.740;6.784;2024-03-23T03:23:44;11.48;;;2.95;;
59300;SDS011;45073;52.740;6.784;2024-03-23T03:26:10;10.52;;;2.00;;
59300;SDS011;45073;52.740;6.784;2024-03-23T03:28:36;11.43;;;3.05;;
59300;SDS011;45073;52.740;6.784;2024-03-23T03:33:37;20.02;;;3.75;;
59300;SDS011;45073;52.740;6.784;2024-03-23T03:36:22;7.68;;;2.28;;
59300;SDS011;45073;52.740;6.784;2024-03-23T03:38:49;13.35;;;3.20;;
59300;SDS011;45073;52.740;6.784;2024-03-23T03:41:18;13.82;;;2.65;;
59300;SDS011;45073;52.740;6.784;2024-03-23T03:43:46;12.10;;;2.92;;
59300;SDS011;45073;52.740;6.784;2024-03-23T03:46:16;13.07;;;3.13;;
59300;SDS011;45073;52.740;6.784;2024-03-23T03:49:00;12.77;;;2.75;;
59300;SDS011;45073;52.740;6.784;2024-03-23T03:51:49;14.15;;;2.88;;
59300;SDS011;45073;52.740;6.784;2024-03-23T03:58:49;16.45;;;3.47;;
59300;SDS011;45073;52.740;6.784;2024-03-23T04:01:15;9.70;;;3.30;;
59300;SDS011;45073;52.740;6.784;2024-03-23T04:03:42;19.02;;;3.88;;
59300;SDS011;45073;52.740;6.784;2024-03-23T04:06:09;12.05;;;2.90;;
59300;SDS011;45073;52.740;6.784;2024-03-23T04:08:35;8.30;;;2.17;;
59300;SDS011;45073;52.740;6.784;2024-03-23T04:11:01;12.30;;;2.92;;
59300;SDS011;45073;52.740;6.784;2024-03-23T04:13:27;12.10;;;3.47;;
59300;SDS011;45073;52.740;6.784;2024-03-23T04:18:28;13.63;;;3.35;;
59300;SDS011;45073;52.740;6.784;2024-03-23T04:20:54;10.38;;;3.30;;
59300;SDS011;45073;52.740;6.784;2024-03-23T04:23:20;10.85;;;2.70;;
59300;SDS011;45073;52.740;6.784;2024-03-23T04:25:46;11.38;;;2.80;;
59300;SDS011;45073;52.740;6.784;2024-03-23T04:28:12;12.23;;;2.53;;
59300;SDS011;45073;52.740;6.784;2024-03-23T04:30:40;6.07;;;2.40;;
59300;SDS011;45073;52.740;6.784;2024-03-23T04:33:07;11.25;;;2.55;;
59300;SDS011;45073;52.740;6.784;2024-03-23T04:35:33;8.40;;;2.70;;
59300;SDS011;45073;52.740;6.784;2024-03-23T04:38:01;17.25;;;2.97;;
59300;SDS011;45073;52.740;6.784;2024-03-23T04:40:31;10.38;;;2.88;;
59300;SDS011;45073;52.740;6.784;2024-03-23T04:51:43;14.55;;;2.67;;
59300;SDS011;45073;52.740;6.784;2024-03-23T04:54:16;11.38;;;3.15;;
59300;SDS011;45073;52.740;6.784;2024-03-23T04:56:47;13.70;;;4.60;;
59300;SDS011;45073;52.740;6.784;2024-03-23T05:00:13;17.40;;;3.97;;
59300;SDS011;45073;52.740;6.784;2024-03-23T05:02:47;9.27;;;3.25;;
59300;SDS011;45073;52.740;6.784;2024-03-23T05:05:13;12.00;;;2.35;;
59300;SDS011;45073;52.740;6.784;2024-03-23T05:07:40;7.88;;;2.10;;
59300;SDS011;45073;52.740;6.784;2024-03-23T05:10:07;14.82;;;3.30;;
59300;SDS011;45073;52.740;6.784;2024-03-23T05:12:38;11.43;;;2.47;;
59300;SDS011;45073;52.740;6.784;2024-03-23T05:17:44;10.73;;;2.67;;
59300;SDS011;45073;52.740;6.784;2024-03-23T05:20:21;9.13;;;3.00;;
59300;SDS011;45073;52.740;6.784;2024-03-23T05:23:53;12.45;;;2.90;;
59300;SDS011;45073;52.740;6.784;2024-03-23T05:26:56;10.23;;;3.05;;
59300;SDS011;45073;52.740;6.784;2024-03-23T05:29:33;12.98;;;3.33;;
59300;SDS011;45073;52.740;6.784;2024-03-23T05:31:59;9.40;;;3.17;;
59300;SDS011;45073;52.740;6.784;2024-03-23T05:34:35;9.75;;;2.53;;
59300;SDS011;45073;52.740;6.784;2024-03-23T05:37:01;11.80;;;4.63;;
59300;SDS011;45073;52.740;6.784;2024-03-23T05:39:28;12.57;;;2.95;;
59300;SDS011;45073;52.740;6.784;2024-03-23T05:42:16;11.02;;;2.42;;
59300;SDS011;45073;52.740;6.784;2024-03-23T05:44:45;9.98;;;2.22;;
59300;SDS011;45073;52.740;6.784;2024-03-23T05:47:13;10.70;;;3.08;;
59300;SDS011;45073;52.740;6.784;2024-03-23T05:49:42;8.40;;;3.05;;
59300;SDS011;45073;52.740;6.784;2024-03-23T05:52:09;10.30;;;3.95;;
59300;SDS011;45073;52.740;6.784;2024-03-23T05:54:35;9.05;;;2.13;;
59300;SDS011;45073;52.740;6.784;2024-03-23T05:57:03;8.48;;;2.92;;
59300;SDS011;45073;52.740;6.784;2024-03-23T05:59:29;14.40;;;3.08;;
59300;SDS011;45073;52.740;6.784;2024-03-23T06:01:56;11.23;;;3.45;;
59300;SDS011;45073;52.740;6.784;2024-03-23T06:04:22;8.93;;;2.65;;
59300;SDS011;45073;52.740;6.784;2024-03-23T06:06:48;5.88;;;2.05;;
59300;SDS011;45073;52.740;6.784;2024-03-23T06:09:19;11.82;;;2.33;;
59300;SDS011;45073;52.740;6.784;2024-03-23T06:12:01;8.85;;;2.72;;
59300;SDS011;45073;52.740;6.784;2024-03-23T06:18:25;11.55;;;3.95;;
59300;SDS011;45073;52.740;6.784;2024-03-23T06:21:03;12.75;;;2.75;;
59300;SDS011;45073;52.740;6.784;2024-03-23T06:23:29;9.57;;;3.55;;
59300;SDS011;45073;52.740;6.784;2024-03-23T06:25:57;9.48;;;2.20;;
59300;SDS011;45073;52.740;6.784;2024-03-23T06:28:23;10.07;;;3.42;;
59300;SDS011;45073;52.740;6.784;2024-03-23T06:30:50;16.67;;;1.95;;
59300;SDS011;45073;52.740;6.784;2024-03-23T06:33:16;10.82;;;3.15;;
59300;SDS011;45073;52.740;6.784;2024-03-23T06:35:49;11.50;;;1.73;;
59300;SDS011;45073;52.740;6.784;2024-03-23T06:39:13;11.85;;;2.38;;
59300;SDS011;45073;52.740;6.784;2024-03-23T06:41:41;7.65;;;2.20;;
59300;SDS011;45073;52.740;6.784;2024-03-23T06:44:07;9.15;;;1.05;;
59300;SDS011;45073;52.740;6.784;2024-03-23T06:46:33;8.15;;;1.52;;
59300;SDS011;45073;52.740;6.784;2024-03-23T06:48:59;8.52;;;1.83;;
59300;SDS011;45073;52.740;6.784;2024-03-23T06:51:24;8.57;;;1.60;;
59300;SDS011;45073;52.740;6.784;2024-03-23T06:53:50;5.93;;;1.05;;
59300;SDS011;45073;52.740;6.784;2024-03-23T06:56:16;8.48;;;1.35;;
59300;SDS011;45073;52.740;6.784;2024-03-23T06:58:41;6.72;;;1.42;;
59300;SDS011;45073;52.740;6.784;2024-03-23T07:01:07;6.38;;;1.55;;
59300;SDS011;45073;52.740;6.784;2024-03-23T07:03:33;8.48;;;1.80;;
59300;SDS011;45073;52.740;6.784;2024-03-23T07:05:58;6.00;;;1.48;;
59300;SDS011;45073;52.740;6.784;2024-03-23T07:08:24;6.13;;;1.52;;
59300;SDS011;45073;52.740;6.784;2024-03-23T07:10:50;6.15;;;1.73;;
59300;SDS011;45073;52.740;6.784;2024-03-23T07:13:16;3.35;;;1.65;;
59300;SDS011;45073;52.740;6.784;2024-03-23T07:15:42;5.53;;;1.35;;
59300;SDS011;45073;52.740;6.784;2024-03-23T07:18:08;10.20;;;2.03;;
59300;SDS011;45073;52.740;6.784;2024-03-23T07:20:33;6.78;;;1.85;;
59300;SDS011;45073;52.740;6.784;2024-03-23T07:22:59;5.72;;;1.85;;
59300;SDS011;45073;52.740;6.784;2024-03-23T07:25:25;11.68;;;2.35;;
59300;SDS011;45073;52.740;6.784;2024-03-23T07:27:53;5.53;;;1.25;;
59300;SDS011;45073;52.740;6.784;2024-03-23T07:30:18;5.72;;;1.75;;
59300;SDS011;45073;52.740;6.784;2024-03-23T07:32:44;8.13;;;1.75;;
59300;SDS011;45073;52.740;6.784;2024-03-23T07:35:10;5.70;;;1.50;;
59300;SDS011;45073;52.740;6.784;2024-03-23T07:37:36;7.45;;;1.83;;
59300;SDS011;45073;52.740;6.784;2024-03-23T07:40:02;10.48;;;1.70;;
59300;SDS011;45073;52.740;6.784;2024-03-23T07:42:28;6.95;;;1.67;;
59300;SDS011;45073;52.740;6.784;2024-03-23T07:44:54;6.95;;;3.28;;
59300;SDS011;45073;52.740;6.784;2024-03-23T07:47:22;6.63;;;2.03;;
59300;SDS011;45073;52.740;6.784;2024-03-23T07:49:47;10.38;;;2.50;;
59300;SDS011;45073;52.740;6.784;2024-03-23T07:52:13;13.50;;;3.53;;
59300;SDS011;45073;52.740;6.784;2024-03-23T07:54:40;8.73;;;1.80;;
59300;SDS011;45073;52.740;6.784;2024-03-23T07:57:05;9.10;;;2.28;;
59300;SDS011;45073;52.740;6.784;2024-03-23T07:59:31;6.32;;;2.40;;
59300;SDS011;45073;52.740;6.784;2024-03-23T08:01:59;6.07;;;1.38;;
59300;SDS011;45073;52.740;6.784;2024-03-23T08:04:25;8.60;;;1.33;;
59300;SDS011;45073;52.740;6.784;2024-03-23T08:06:52;6.85;;;1.60;;
59300;SDS011;45073;52.740;6.784;2024-03-23T08:09:17;4.15;;;1.42;;
59300;SDS011;45073;52.740;6.784;2024-03-23T08:11:43;4.47;;;1.63;;
59300;SDS011;45073;52.740;6.784;2024-03-23T08:14:11;1.63;;;0.73;;
59300;SDS011;45073;52.740;6.784;2024-03-23T08:16:40;1.58;;;0.77;;
59300;SDS011;45073;52.740;6.784;2024-03-23T08:19:06;5.65;;;1.00;;
59300;SDS011;45073;52.740;6.784;2024-03-23T08:21:33;4.72;;;1.60;;
59300;SDS011;45073;52.740;6.784;2024-03-23T08:23:59;5.65;;;1.30;;
59300;SDS011;45073;52.740;6.784;2024-03-23T08:26:25;5.43;;;1.60;;
59300;SDS011;45073;52.740;6.784;2024-03-23T08:28:50;7.28;;;1.77;;
59300;SDS011;45073;52.740;6.784;2024-03-23T08:31:16;6.53;;;1.55;;
59300;SDS011;45073;52.740;6.784;2024-03-23T08:33:42;5.05;;;1.48;;
59300;SDS011;45073;52.740;6.784;2024-03-23T08:36:08;4.53;;;0.98;;
59300;SDS011;45073;52.740;6.784;2024-03-23T08:38:37;5.22;;;1.55;;
59300;SDS011;45073;52.740;6.784;2024-03-23T08:43:34;4.45;;;0.80;;
59300;SDS011;45073;52.740;6.784;2024-03-23T08:46:08;3.50;;;1.42;;
59300;SDS011;45073;52.740;6.784;2024-03-23T08:48:36;5.10;;;1.10;;
59300;SDS011;45073;52.740;6.784;2024-03-23T08:51:04;4.00;;;1.15;;
59300;SDS011;45073;52.740;6.784;2024-03-23T08:53:33;6.22;;;1.80;;
59300;SDS011;45073;52.740;6.784;2024-03-23T08:56:02;2.75;;;0.98;;
59300;SDS011;45073;52.740;6.784;2024-03-23T08:58:30;2.75;;;0.65;;
59300;SDS011;45073;52.740;6.784;2024-03-23T09:00:57;3.50;;;0.75;;
59300;SDS011;45073;52.740;6.784;2024-03-23T09:03:28;1.52;;;0.73;;
59300;SDS011;45073;52.740;6.784;2024-03-23T09:05:54;0.98;;;0.55;;
59300;SDS011;45073;52.740;6.784;2024-03-23T09:08:20;1.15;;;0.50;;
59300;SDS011;45073;52.740;6.784;2024-03-23T09:10:47;6.22;;;0.82;;
59300;SDS011;45073;52.740;6.784;2024-03-23T09:13:13;5.10;;;1.10;;
59300;SDS011;45073;52.740;6.784;2024-03-23T09:15:46;4.82;;;0.85;;
59300;SDS011;45073;52.740;6.784;2024-03-23T09:18:16;4.40;;;1.08;;
59300;SDS011;45073;52.740;6.784;2024-03-23T09:20:42;3.75;;;1.17;;
59300;SDS011;45073;52.740;6.784;2024-03-23T09:23:08;5.05;;;0.98;;
59300;SDS011;45073;52.740;6.784;2024-03-23T09:25:37;2.78;;;0.75;;
59300;SDS011;45073;52.740;6.784;2024-03-23T09:28:04;3.95;;;1.23;;
59300;SDS011;45073;52.740;6.784;2024-03-23T09:30:33;7.47;;;1.30;;
59300;SDS011;45073;52.740;6.784;2024-03-23T09:32:59;4.63;;;0.90;;
59300;SDS011;45073;52.740;6.784;2024-03-23T09:35:38;3.40;;;0.65;;
59300;SDS011;45073;52.740;6.784;2024-03-23T09:38:16;3.47;;;1.17;;
59300;SDS011;45073;52.740;6.784;2024-03-23T09:40:44;4.22;;;0.98;;
59300;SDS011;45073;52.740;6.784;2024-03-23T09:43:14;5.15;;;1.52;;
59300;SDS011;45073;52.740;6.784;2024-03-23T09:45:51;2.42;;;0.52;;
59300;SDS011;45073;52.740;6.784;2024-03-23T09:48:49;2.25;;;0.70;;
59300;SDS011;45073;52.740;6.784;2024-03-23T09:51:20;1.27;;;0.60;;
59300;SDS011;45073;52.740;6.784;2024-03-23T09:54:33;2.92;;;0.75;;
59300;SDS011;45073;52.740;6.784;2024-03-23T09:57:11;2.10;;;0.80;;
59300;SDS011;45073;52.740;6.784;2024-03-23T09:59:44;1.23;;;0.50;;
59300;SDS011;45073;52.740;6.784;2024-03-23T10:02:26;2.85;;;0.70;;
59300;SDS011;45073;52.740;6.784;2024-03-23T10:05:01;2.97;;;0.80;;
59300;SDS011;45073;52.740;6.784;2024-03-23T10:11:46;3.50;;;0.98;;
59300;SDS011;45073;52.740;6.784;2024-03-23T10:14:25;1.30;;;0.57;;
59300;SDS011;45073;52.740;6.784;2024-03-23T10:16:54;5.95;;;0.85;;
59300;SDS011;45073;52.740;6.784;2024-03-23T10:19:45;3.33;;;0.30;;
59300;SDS011;45073;52.740;6.784;2024-03-23T10:22:19;3.00;;;0.65;;
59300;SDS011;45073;52.740;6.784;2024-03-23T10:24:46;3.15;;;1.08;;
59300;SDS011;45073;52.740;6.784;2024-03-23T10:27:19;5.22;;;1.40;;
59300;SDS011;45073;52.740;6.784;2024-03-23T10:29:46;1.30;;;0.35;;
59300;SDS011;45073;52.740;6.784;2024-03-23T10:32:16;1.65;;;0.55;;
59300;SDS011;45073;52.740;6.784;2024-03-23T10:34:43;1.92;;;0.40;;
59300;SDS011;45073;52.740;6.784;2024-03-23T10:37:10;3.35;;;0.60;;
59300;SDS011;45073;52.740;6.784;2024-03-23T10:39:37;2.28;;;0.63;;
59300;SDS011;45073;52.740;6.784;2024-03-23T10:42:04;2.85;;;1.23;;
59300;SDS011;45073;52.740;6.784;2024-03-23T10:44:31;2.25;;;0.35;;
59300;SDS011;45073;52.740;6.784;2024-03-23T10:46:58;2.15;;;0.47;;
59300;SDS011;45073;52.740;6.784;2024-03-23T10:49:34;3.80;;;0.73;;
59300;SDS011;45073;52.740;6.784;2024-03-23T10:52:04;10.00;;;1.25;;
59300;SDS011;45073;52.740;6.784;2024-03-23T10:54:31;2.80;;;0.90;;
59300;SDS011;45073;52.740;6.784;2024-03-23T10:59:33;6.05;;;0.85;;
59300;SDS011;45073;52.740;6.784;2024-03-23T11:02:01;3.47;;;0.85;;
59300;SDS011;45073;52.740;6.784;2024-03-23T11:04:30;2.08;;;0.73;;
59300;SDS011;45073;52.740;6.784;2024-03-23T11:07:00;1.67;;;0.60;;
59300;SDS011;45073;52.740;6.784;2024-03-23T11:09:50;1.13;;;0.50;;
59300;SDS011;45073;52.740;6.784;2024-03-23T11:17:37;2.33;;;0.68;;
59300;SDS011;45073;52.740;6.784;2024-03-23T11:20:04;3.90;;;0.80;;
59300;SDS011;45073;52.740;6.784;2024-03-23T11:22:40;2.20;;;0.98;;
59300;SDS011;45073;52.740;6.784;2024-03-23T11:25:14;9.98;;;2.83;;
59300;SDS011;45073;52.740;6.784;2024-03-23T11:27:43;4.03;;;1.02;;
59300;SDS011;45073;52.740;6.784;2024-03-23T11:30:11;6.30;;;0.95;;
59300;SDS011;45073;52.740;6.784;2024-03-23T11:32:49;5.55;;;1.35;;
59300;SDS011;45073;52.740;6.784;2024-03-23T11:35:25;4.32;;;1.00;;
59300;SDS011;45073;52.740;6.784;2024-03-23T11:38:11;10.65;;;1.30;;
59300;SDS011;45073;52.740;6.784;2024-03-23T11:43:18;4.25;;;1.08;;
59300;SDS011;45073;52.740;6.784;2024-03-23T11:45:50;7.28;;;1.75;;
59300;SDS011;45073;52.740;6.784;2024-03-23T11:48:25;7.30;;;1.20;;
59300;SDS011;45073;52.740;6.784;2024-03-23T11:50:56;4.88;;;1.15;;
59300;SDS011;45073;52.740;6.784;2024-03-23T11:53:23;4.72;;;1.13;;
59300;SDS011;45073;52.740;6.784;2024-03-23T11:55:58;7.38;;;1.73;;
59300;SDS011;45073;52.740;6.784;2024-03-23T11:58:26;4.78;;;0.95;;
59300;SDS011;45073;52.740;6.784;2024-03-23T12:00:56;9.13;;;1.77;;
59300;SDS011;45073;52.740;6.784;2024-03-23T12:03:23;6.78;;;1.75;;
59300;SDS011;45073;52.740;6.784;2024-03-23T12:05:56;4.18;;;1.95;;
59300;SDS011;45073;52.740;6.784;2024-03-23T12:08:24;4.18;;;1.35;;
59300;SDS011;45073;52.740;6.784;2024-03-23T12:11:15;7.35;;;1.30;;
59300;SDS011;45073;52.740;6.784;2024-03-23T12:13:41;4.57;;;1.35;;
59300;SDS011;45073;52.740;6.784;2024-03-23T12:16:17;5.55;;;1.60;;
59300;SDS011;45073;52.740;6.784;2024-03-23T12:18:47;1.70;;;0.75;;
59300;SDS011;45073;52.740;6.784;2024-03-23T12:21:14;2.97;;;0.60;;
59300;SDS011;45073;52.740;6.784;2024-03-23T12:23:42;8.00;;;1.38;;
59300;SDS011;45073;52.740;6.784;2024-03-23T12:26:09;5.82;;;0.70;;
59300;SDS011;45073;52.740;6.784;2024-03-23T12:28:36;6.35;;;1.88;;
59300;SDS011;45073;52.740;6.784;2024-03-23T12:31:02;3.45;;;0.52;;
59300;SDS011;45073;52.740;6.784;2024-03-23T12:33:28;2.70;;;0.88;;
59300;SDS011;45073;52.740;6.784;2024-03-23T12:35:54;7.93;;;0.90;;
59300;SDS011;45073;52.740;6.784;2024-03-23T12:38:20;2.28;;;0.57;;
59300;SDS011;45073;52.740;6.784;2024-03-23T12:40:46;3.55;;;0.65;;
59300;SDS011;45073;52.740;6.784;2024-03-23T12:43:15;2.70;;;0.52;;
59300;SDS011;45073;52.740;6.784;2024-03-23T12:45:48;5.30;;;1.30;;
59300;SDS011;45073;52.740;6.784;2024-03-23T12:48:14;7.47;;;1.30;;
59300;SDS011;45073;52.740;6.784;2024-03-23T12:50:40;1.55;;;0.63;;
59300;SDS011;45073;52.740;6.784;2024-03-23T12:53:06;3.20;;;1.02;;
59300;SDS011;45073;52.740;6.784;2024-03-23T12:55:32;2.53;;;0.65;;
59300;SDS011;45073;52.740;6.784;2024-03-23T12:58:00;6.13;;;1.48;;
59300;SDS011;45073;52.740;6.784;2024-03-23T13:00:26;6.28;;;1.25;;
59300;SDS011;45073;52.740;6.784;2024-03-23T13:02:51;2.90;;;0.77;;
59300;SDS011;45073;52.740;6.784;2024-03-23T13:05:17;2.05;;;0.40;;
59300;SDS011;45073;52.740;6.784;2024-03-23T13:07:43;1.05;;;0.32;;
59300;SDS011;45073;52.740;6.784;2024-03-23T13:10:08;1.75;;;0.60;;
59300;SDS011;45073;52.740;6.784;2024-03-23T13:12:35;1.58;;;0.40;;
59300;SDS011;45073;52.740;6.784;2024-03-23T13:15:01;2.83;;;0.47;;
59300;SDS011;45073;52.740;6.784;2024-03-23T13:17:27;2.05;;;0.60;;
59300;SDS011;45073;52.740;6.784;2024-03-23T13:19:56;8.38;;;1.00;;
59300;SDS011;45073;52.740;6.784;2024-03-23T13:22:22;2.10;;;0.57;;
59300;SDS011;45073;52.740;6.784;2024-03-23T13:24:47;2.58;;;0.43;;
59300;SDS011;45073;52.740;6.784;2024-03-23T13:27:13;4.95;;;0.75;;
59300;SDS011;45073;52.740;6.784;2024-03-23T13:29:39;3.08;;;0.85;;
59300;SDS011;45073;52.740;6.784;2024-03-23T13:32:05;3.42;;;0.63;;
59300;SDS011;45073;52.740;6.784;2024-03-23T13:34:31;0.65;;;0.20;;
59300;SDS011;45073;52.740;6.784;2024-03-23T13:36:58;1.10;;;0.40;;
59300;SDS011;45073;52.740;6.784;2024-03-23T13:39:27;1.85;;;0.35;;
59300;SDS011;45073;52.740;6.784;2024-03-23T13:41:53;1.42;;;0.20;;
59300;SDS011;45073;52.740;6.784;2024-03-23T13:44:21;2.80;;;0.70;;
59300;SDS011;45073;52.740;6.784;2024-03-23T13:46:48;2.03;;;0.52;;
59300;SDS011;45073;52.740;6.784;2024-03-23T13:51:52;5.57;;;1.17;;
59300;SDS011;45073;52.740;6.784;2024-03-23T13:54:19;1.25;;;0.45;;
59300;SDS011;45073;52.740;6.784;2024-03-23T13:56:45;1.55;;;0.52;;
59300;SDS011;45073;52.740;6.784;2024-03-23T13:59:11;2.38;;;0.73;;
59300;SDS011;45073;52.740;6.784;2024-03-23T14:01:37;4.15;;;1.00;;
59300;SDS011;45073;52.740;6.784;2024-03-23T14:04:02;2.75;;;1.30;;
59300;SDS011;45073;52.740;6.784;2024-03-23T14:06:28;3.00;;;0.85;;
59300;SDS011;45073;52.740;6.784;2024-03-23T14:08:54;2.90;;;0.50;;
59300;SDS011;45073;52.740;6.784;2024-03-23T14:11:19;4.07;;;0.65;;
59300;SDS011;45073;52.740;6.784;2024-03-23T14:13:45;3.40;;;0.52;;
59300;SDS011;45073;52.740;6.784;2024-03-23T14:16:11;0.20;;;0.20;;
59300;SDS011;45073;52.740;6.784;2024-03-23T14:18:36;2.95;;;0.40;;
59300;SDS011;45073;52.740;6.784;2024-03-23T14:21:02;1.60;;;0.47;;
59300;SDS011;45073;52.740;6.784;2024-03-23T14:23:29;4.47;;;0.55;;
59300;SDS011;45073;52.740;6.784;2024-03-23T14:25:58;4.60;;;0.98;;
59300;SDS011;45073;52.740;6.784;2024-03-23T14:28:24;3.53;;;0.60;;
59300;SDS011;45073;52.740;6.784;2024-03-23T14:30:50;1.58;;;0.45;;
59300;SDS011;45073;52.740;6.784;2024-03-23T14:33:17;3.65;;;1.08;;
59300;SDS011;45073;52.740;6.784;2024-03-23T14:35:43;5.15;;;0.52;;
59300;SDS011;45073;52.740;6.784;2024-03-23T14:38:17;3.30;;;1.33;;
59300;SDS011;45073;52.740;6.784;2024-03-23T14:40:42;4.68;;;2.30;;
59300;SDS011;45073;52.740;6.784;2024-03-23T14:43:08;5.25;;;1.15;;
59300;SDS011;45073;52.740;6.784;2024-03-23T14:45:34;4.60;;;0.68;;
59300;SDS011;45073;52.740;6.784;2024-03-23T14:47:59;2.15;;;0.65;;
59300;SDS011;45073;52.740;6.784;2024-03-23T14:50:25;1.98;;;0.73;;
59300;SDS011;45073;52.740;6.784;2024-03-23T14:52:51;3.75;;;1.13;;
59300;SDS011;45073;52.740;6.784;2024-03-23T14:55:17;3.13;;;0.60;;
59300;SDS011;45073;52.740;6.784;2024-03-23T14:57:44;6.18;;;1.17;;
59300;SDS011;45073;52.740;6.784;2024-03-23T15:00:10;4.75;;;0.90;;
59300;SDS011;45073;52.740;6.784;2024-03-23T15:02:37;7.47;;;0.80;;
59300;SDS011;45073;52.740;6.784;2024-03-23T15:05:03;6.72;;;1.13;;
59300;SDS011;45073;52.740;6.784;2024-03-23T15:07:33;3.85;;;0.75;;
59300;SDS011;45073;52.740;6.784;2024-03-23T15:09:58;3.30;;;0.75;;
59300;SDS011;45073;52.740;6.784;2024-03-23T15:12:24;5.57;;;0.90;;
59300;SDS011;45073;52.740;6.784;2024-03-23T15:14:50;6.78;;;1.33;;
59300;SDS011;45073;52.740;6.784;2024-03-23T15:17:16;2.47;;;0.68;;
59300;SDS011;45073;52.740;6.784;2024-03-23T15:19:43;2.92;;;1.27;;
59300;SDS011;45073;52.740;6.784;2024-03-23T15:22:09;5.72;;;1.00;;
59300;SDS011;45073;52.740;6.784;2024-03-23T15:24:35;2.72;;;0.52;;
59300;SDS011;45073;52.740;6.784;2024-03-23T15:27:01;3.20;;;0.70;;
59300;SDS011;45073;52.740;6.784;2024-03-23T15:29:29;5.25;;;1.15;;
59300;SDS011;45073;52.740;6.784;2024-03-23T15:31:56;4.47;;;1.30;;
59300;SDS011;45073;52.740;6.784;2024-03-23T15:34:22;4.10;;;1.88;;
59300;SDS011;45073;52.740;6.784;2024-03-23T15:36:48;6.25;;;1.20;;
59300;SDS011;45073;52.740;6.784;2024-03-23T15:39:15;5.97;;;1.50;;
59300;SDS011;45073;52.740;6.784;2024-03-23T15:41:47;3.40;;;0.90;;
59300;SDS011;45073;52.740;6.784;2024-03-23T15:44:13;6.32;;;1.05;;
59300;SDS011;45073;52.740;6.784;2024-03-23T15:46:42;3.05;;;0.95;;
59300;SDS011;45073;52.740;6.784;2024-03-23T15:49:08;3.47;;;1.25;;
59300;SDS011;45073;52.740;6.784;2024-03-23T15:51:34;1.80;;;0.60;;
59300;SDS011;45073;52.740;6.784;2024-03-23T15:54:02;2.28;;;0.52;;
59300;SDS011;45073;52.740;6.784;2024-03-23T15:56:31;6.43;;;0.93;;
59300;SDS011;45073;52.740;6.784;2024-03-23T15:58:57;6.53;;;1.05;;
59300;SDS011;45073;52.740;6.784;2024-03-23T16:01:30;3.83;;;0.88;;
59300;SDS011;45073;52.740;6.784;2024-03-23T16:03:58;3.85;;;0.80;;
59300;SDS011;45073;52.740;6.784;2024-03-23T16:06:24;3.45;;;0.75;;
59300;SDS011;45073;52.740;6.784;2024-03-23T16:08:50;2.40;;;0.55;;
59300;SDS011;45073;52.740;6.784;2024-03-23T16:11:17;2.03;;;0.68;;
59300;SDS011;45073;52.740;6.784;2024-03-23T16:13:43;6.20;;;1.00;;
59300;SDS011;45073;52.740;6.784;2024-03-23T16:16:09;5.72;;;1.25;;
59300;SDS011;45073;52.740;6.784;2024-03-23T16:18:36;4.45;;;1.20;;
59300;SDS011;45073;52.740;6.784;2024-03-23T16:21:05;5.28;;;1.20;;
59300;SDS011;45073;52.740;6.784;2024-03-23T16:23:32;8.57;;;0.88;;
59300;SDS011;45073;52.740;6.784;2024-03-23T16:25:58;3.85;;;0.80;;
59300;SDS011;45073;52.740;6.784;2024-03-23T16:28:28;0.32;;;0.20;;
59300;SDS011;45073;52.740;6.784;2024-03-23T16:30:55;3.05;;;0.57;;
59300;SDS011;45073;52.740;6.784;2024-03-23T16:33:21;2.53;;;0.43;;